Дата Пункты Температура Давл., мм. Влажн., % Ветер Погодные явления
Воздуха Воды Направл. Скорость
25.06.16 12:00 Одесса 27.0 26.0 761 65 С 1 12 часов
25.06.16 09:00 Одесса 26.0 26.0 761 71 Пн 3 09 часов
25.06.16 06:00 Одесса 23.0 26.0 761 85 Пн 1 06 часов
25.06.16 03:00 Одесса 25.0 26.0 761 81 Пн-С 4 03 часа
24.06.16 09:00 Одесса 26.0 27.0 761 65 Пн-З 1 21 час
24.06.16 06:00 Одесса 29.0 26.0 761 52 Пд 1 18 часов
24.06.16 03:00 Одесса 29.0 26.0 761 53 Пд-С 2 15 часов
24.06.16 12:00 Одесса 28.0 26.0 762 71 С 2 12 часов
24.06.16 09:00 Одесса 27.0 26.0 762 77 Пн 2 09 часов
24.06.16 06:00 Одесса 23.0 26.0 762 92 Пн-З 1 06 часов
24.06.16 03:00 Одесса 24.0 26.0 762 88 Пн 1 03 часа
23.06.16 09:00 Одесса 28.0 27.0 762 73 Пн 3 21 час
23.06.16 06:00 Одесса 29.0 26.0 762 71 Пн-С 4 18 часов
23.06.16 03:00 Одесса 30.0 26.0 763 77 Пн-С 3 15 часов
23.06.16 12:00 Одесса 30.0 26.0 763 73 Пн-С 3 12 часов
23.06.16 09:00 Одесса 29.0 26.0 763 76 Пн 2 09 часов
23.06.16 06:00 Одесса 24.0 26.0 762 85 Пн 2 06 часов
23.06.16 03:00 Одесса 25.0 26.0 762 85 Пн 1 03 часа
22.06.16 09:00 Одесса 28.0 26.0 761 67 Пн 1 21 час
22.06.16 06:00 Одесса 32.0 26.0 762 48 Пн 0 18 часов
Количество строк
351 352 353 354 355 356 357 358 359 360
Page 352 of 530